Hemphill, Texas
Current Conditions -  °F | °C
As of 9:35 PM on Saturday 22 Nov 2014 (Local Time) from KJAS Reporting Station
Light Rain Light Rain  
Wind Chill: 64°   Ceiling: 600
Heat Index: 64°   Visibility: 7mi
Dew Point: 62°   Wind: 6mph
Humidity: 95%   Direction: 140°SE
Pressure: 29.84"   Gusts: NA
Location:  31.34°N, 93.85°W
Report Text: KJAS 230335Z AUTO 14005KT 7SM -RA OVC006 18/17 A2984 RMK AO2 P0002 T01760168
Loading
Personal Weather Stations






























Interactive Weather Map New forecast layout! Learn more

10-Day Weather Forecast

Advertisements
Track Severe Weather on mobile